Terminal Aerodrome Forecast
Issued by NWS

Home | Current Version | Previous Version | Text Only | Print | Product List | Glossary On
Versions: 1 2 3 4 5 6 7 8 9 10 11 12 13 14 15 16 17
794
FTUS43 KGRR 042022 AAA
TAFMKG
TAF AMD
KMKG 042022Z 0420/0518 12008KT 1/2SM SN FG OVC010
      TEMPO 0420/0424 1/4SM SN FG OVC004
     FM050300 23009KT 3SM -SN BR OVC009
     FM050700 26010KT 6SM BR OVC025
     FM051400 23008KT P6SM BKN050=

USA.gov is the U.S. government's official web portal to all federal, state and local government web resources and services.